Time;durP1;ratioP1;P1;durP2;ratioP2;P2;SDS_P1;SDS_P2;PMS_P1;PMS_P2;Temp;Humidity;BMP_temperature;BMP_pressure;BME280_temperature;BME280_humidity;BME280_pressure;Samples;Min_cycle;Max_cycle;Signal;HPM_P1;HPM_P2
2023/05/10 00:00:28;;;;;;;;;0.00;0.00;;;;;15.51;67.00;100697.13;2054752;28;46286;-66
2023/05/10 00:01:28;;;;;;;;;0.00;0.00;;;;;15.50;67.41;100705.19;2083350;28;46638;-64
2023/05/10 00:02:29;;;;;;;;;0.00;0.00;;;;;15.47;67.15;100706.19;2072373;28;46749;-65
2023/05/10 00:03:29;;;;;;;;;1.00;1.00;;;;;15.46;67.40;100703.59;2072592;28;46213;-64
2023/05/10 00:04:29;;;;;;;;;1.00;0.00;;;;;15.46;67.28;100700.91;2071945;28;46392;-64
2023/05/10 00:05:31;;;;;;;;;2.00;0.00;;;;;15.47;67.54;100710.66;2072156;28;46892;-63
2023/05/10 00:06:31;;;;;;;;;0.75;0.75;;;;;15.44;67.17;100705.47;2072422;28;46762;-64
2023/05/10 00:07:31;;;;;;;;;1.00;0.00;;;;;15.42;67.21;100702.84;2072312;28;46477;-64
2023/05/10 00:08:32;;;;;;;;;0.00;0.00;;;;;15.39;67.65;100704.78;2071838;28;46434;-63
2023/05/10 00:09:32;;;;;;;;;0.33;0.33;;;;;15.37;67.38;100704.81;2071434;28;46550;-63
2023/05/10 00:10:33;;;;;;;;;1.00;1.00;;;;;15.35;67.41;100706.69;2072152;28;46996;-65
2023/05/10 00:11:33;;;;;;;;;1.00;1.00;;;;;15.34;67.32;100709.44;2072149;28;46633;-65
2023/05/10 00:12:33;;;;;;;;;0.00;0.00;;;;;15.33;67.12;100705.91;2072305;28;46665;-63
2023/05/10 00:13:34;;;;;;;;;0.33;0.33;;;;;15.31;67.73;100707.78;2072461;28;46293;-62
2023/05/10 00:14:35;;;;;;;;;1.33;0.33;;;;;15.30;67.57;100711.38;2072112;28;45459;-64
2023/05/10 00:15:35;;;;;;;;;1.25;0.50;;;;;15.27;67.38;100703.50;2072051;28;46714;-63
2023/05/10 00:16:35;;;;;;;;;0.00;0.00;;;;;15.26;67.70;100707.09;2068135;28;46457;-64
2023/05/10 00:17:36;;;;;;;;;1.00;1.00;;;;;15.25;67.57;100705.38;2067494;28;45976;-64
2023/05/10 00:18:36;;;;;;;;;1.33;0.33;;;;;15.24;67.28;100711.63;2071829;28;46231;-64
2023/05/10 00:19:36;;;;;;;;;0.33;0.00;;;;;15.21;66.95;100711.75;2071969;28;45810;-64
2023/05/10 00:20:37;;;;;;;;;1.33;0.33;;;;;15.17;67.06;100705.66;2071664;28;46406;-64
2023/05/10 00:21:37;;;;;;;;;2.33;0.33;;;;;15.14;66.77;100707.59;2071669;28;45765;-64
2023/05/10 00:22:37;;;;;;;;;0.00;0.00;;;;;15.10;66.69;100713.97;2071932;28;46760;-65
2023/05/10 00:23:38;;;;;;;;;1.33;0.00;;;;;15.06;66.38;100710.56;2072124;28;46391;-64
2023/05/10 00:24:38;;;;;;;;;0.00;0.00;;;;;15.05;66.92;100715.97;2071861;28;46557;-64
2023/05/10 00:25:39;;;;;;;;;0.67;0.67;;;;;15.05;66.66;100713.31;2071315;28;46317;-64
2023/05/10 00:26:39;;;;;;;;;0.00;0.00;;;;;15.05;66.85;100708.84;2071690;28;46907;-62
2023/05/10 00:27:39;;;;;;;;;1.00;1.00;;;;;15.05;66.72;100713.31;2079353;28;46648;-65
2023/05/10 00:28:40;;;;;;;;;0.00;0.00;;;;;15.05;66.14;100715.97;2079937;28;46127;-63
2023/05/10 00:29:40;;;;;;;;;0.00;0.00;;;;;15.04;66.25;100711.56;2072007;28;46774;-65
2023/05/10 00:30:40;;;;;;;;;0.67;0.00;;;;;15.02;66.26;100714.31;2063272;28;46775;-66
2023/05/10 00:31:40;;;;;;;;;0.00;0.00;;;;;15.01;66.21;100709.91;2063244;28;46892;-65
2023/05/10 00:32:41;;;;;;;;;0.00;0.00;;;;;14.99;66.09;100709.06;2071678;28;46346;-65
2023/05/10 00:33:42;;;;;;;;;0.00;0.00;;;;;14.97;65.76;100716.28;2071143;28;47072;-63
2023/05/10 00:34:42;;;;;;;;;0.00;0.00;;;;;14.92;65.55;100712.94;2064553;28;46606;-64
2023/05/10 00:35:42;;;;;;;;;0.00;0.00;;;;;14.89;65.37;100715.72;2071637;28;46558;-63
2023/05/10 00:36:43;;;;;;;;;0.00;0.00;;;;;14.87;65.34;100715.78;2072457;28;45949;-64
2023/05/10 00:37:43;;;;;;;;;0.00;0.00;;;;;14.84;65.08;100707.00;2072389;28;46433;-64
2023/05/10 00:38:43;;;;;;;;;0.00;0.00;;;;;14.82;65.02;100711.53;2071981;28;46728;-64
2023/05/10 00:39:44;;;;;;;;;0.00;0.00;;;;;14.77;65.34;100708.19;2071509;28;46243;-64
2023/05/10 00:40:44;;;;;;;;;0.33;0.00;;;;;14.73;65.20;100716.31;2072736;28;45746;-64
2023/05/10 00:41:45;;;;;;;;;0.33;0.00;;;;;14.71;65.08;100722.66;2072853;28;46312;-64
2023/05/10 00:42:45;;;;;;;;;0.00;0.00;;;;;14.69;64.66;100716.50;2072506;28;46177;-65
2023/05/10 00:43:45;;;;;;;;;0.00;0.00;;;;;14.67;64.93;100715.69;2071975;28;46597;-69
2023/05/10 00:44:46;;;;;;;;;0.00;0.00;;;;;14.63;64.80;100722.97;2072211;28;46344;-65
2023/05/10 00:45:47;;;;;;;;;0.00;0.00;;;;;14.62;64.81;100728.38;2072452;28;45887;-63
2023/05/10 00:46:49;;;;;;;;;0.00;0.00;;;;;14.60;64.94;100730.19;2068287;28;46339;-63
2023/05/10 00:47:51;;;;;;;;;0.00;0.00;;;;;14.61;64.67;100723.91;2069380;28;46246;-65
2023/05/10 00:48:52;;;;;;;;;0.00;0.00;;;;;14.60;64.87;100732.88;2072070;28;45820;-65
2023/05/10 00:49:52;;;;;;;;;0.00;0.00;;;;;14.61;64.86;100726.59;2072003;28;46715;-64
2023/05/10 00:50:53;;;;;;;;;0.33;0.00;;;;;14.62;65.22;100731.03;2072467;28;45481;-65
2023/05/10 00:51:54;;;;;;;;;0.00;0.00;;;;;14.62;65.26;100728.38;2071508;28;46656;-65
2023/05/10 00:52:54;;;;;;;;;0.00;0.00;;;;;14.63;65.19;100735.44;2071351;28;46630;-64
2023/05/10 00:53:55;;;;;;;;;0.67;0.00;;;;;14.64;64.90;100737.19;2071584;28;45914;-65
2023/05/10 00:54:56;;;;;;;;;1.00;0.00;;;;;14.64;64.97;100732.72;2071380;28;46031;-64
2023/05/10 00:55:57;;;;;;;;;0.00;0.00;;;;;14.65;64.90;100736.25;2072409;28;45449;-64
2023/05/10 00:56:58;;;;;;;;;0.00;0.00;;;;;14.64;64.79;100734.50;2072036;28;46475;-65
2023/05/10 00:57:59;;;;;;;;;0.00;0.00;;;;;14.64;65.09;100731.84;2071759;28;46809;-65
2023/05/10 00:58:59;;;;;;;;;0.00;0.00;;;;;14.62;65.20;100731.91;2071017;28;46102;-65
2023/05/10 01:00:01;;;;;;;;;0.00;0.00;;;;;14.62;64.67;100734.56;2070858;28;46190;-64
2023/05/10 01:01:02;;;;;;;;;0.25;0.00;;;;;14.63;65.15;100732.78;2065883;28;46323;-64
2023/05/10 01:02:02;;;;;;;;;0.00;0.00;;;;;14.63;65.28;100730.09;2062764;28;46499;-65
2023/05/10 01:03:03;;;;;;;;;0.00;0.00;;;;;14.64;65.09;100730.03;2071641;28;46709;-65
2023/05/10 01:04:03;;;;;;;;;0.00;0.00;;;;;14.63;64.91;100733.66;2071745;28;45408;-65
2023/05/10 01:05:05;;;;;;;;;0.00;0.00;;;;;14.61;64.96;100735.50;2069462;28;46310;-65
2023/05/10 01:06:05;;;;;;;;;0.75;0.75;;;;;14.59;64.71;100729.31;2069831;28;46770;-64
2023/05/10 01:07:06;;;;;;;;;0.00;0.00;;;;;14.58;65.19;100730.25;2064807;28;45837;-63
2023/05/10 01:08:08;;;;;;;;;0.00;0.00;;;;;14.59;65.07;100728.44;2079461;28;46266;-65
2023/05/10 01:09:09;;;;;;;;;0.00;0.00;;;;;14.57;65.20;100732.97;2079216;28;47405;-64
2023/05/10 01:10:10;;;;;;;;;0.00;0.00;;;;;14.56;64.59;100725.91;2072254;28;45223;-65
2023/05/10 01:11:11;;;;;;;;;0.00;0.00;;;;;14.54;64.87;100725.09;2079575;28;47154;-65
2023/05/10 01:12:11;;;;;;;;;0.00;0.00;;;;;14.54;65.11;100727.78;2079191;28;47002;-65
2023/05/10 01:13:12;;;;;;;;;0.00;0.00;;;;;14.55;64.63;100726.84;2071827;28;46527;-65
2023/05/10 01:14:14;;;;;;;;;1.00;0.00;;;;;14.56;65.08;100733.91;2071777;28;46805;-62
2023/05/10 01:15:16;;;;;;;;;0.25;0.25;;;;;14.57;64.91;100735.66;2071394;28;47039;-65
2023/05/10 01:16:17;;;;;;;;;0.00;0.00;;;;;14.58;65.08;100737.41;2071926;28;47433;-64
2023/05/10 01:17:17;;;;;;;;;1.67;0.00;;;;;14.59;65.14;100742.69;2069856;28;46375;-64
2023/05/10 01:18:20;;;;;;;;;0.00;0.00;;;;;14.60;65.08;100743.53;2063575;28;46585;-64
2023/05/10 01:19:26;;;;;;;;;0.00;0.00;;;;;14.61;64.67;100739.94;2071634;28;46803;-65
2023/05/10 01:20:35;;;;;;;;;1.25;0.50;;;;;14.62;64.91;100737.25;2072680;28;45894;-65
2023/05/10 01:21:48;;;;;;;;;0.25;0.00;;;;;14.63;64.76;100732.78;2072159;28;46966;-64
2023/05/10 01:23:16;;;;;;;;;0.00;0.00;;;;;14.64;65.02;100729.16;2072152;28;47312;-65
2023/05/10 01:24:38;;;;;;;;;0.00;0.00;;;;;14.66;64.57;100727.31;2062542;28;46625;-64
2023/05/10 01:26:20;;;;;;;;;0.00;0.00;;;;;14.67;64.59;100727.25;2069652;28;46623;-67
2023/05/10 01:27:35;;;;;;;;;0.00;0.00;;;;;14.68;64.80;100726.31;2046546;28;46486;-65
2023/05/10 01:29:11;;;;;;;;;0.00;0.00;;;;;14.69;64.73;100727.19;2046543;28;46605;-62
2023/05/10 01:30:43;;;;;;;;;0.00;0.00;;;;;14.68;64.21;100725.44;2038044;28;46736;-65
2023/05/10 01:31:56;;;;;;;;;0.00;0.00;;;;;14.66;64.73;100728.19;2011482;29;47309;-65
2023/05/10 01:33:08;;;;;;;;;0.00;0.00;;;;;14.66;64.48;100727.31;2014853;29;46676;-65
2023/05/10 01:34:16;;;;;;;;;0.00;0.00;;;;;14.62;64.53;100723.03;2014707;29;47018;-64
2023/05/10 01:35:22;;;;;;;;;0.00;0.00;;;;;14.62;64.05;100733.69;2014689;29;46492;-65
2023/05/10 01:36:28;;;;;;;;;0.25;0.25;;;;;14.61;64.60;100726.59;2014772;29;46316;-64
2023/05/10 01:37:40;;;;;;;;;0.00;0.00;;;;;14.59;64.12;100740.00;2014773;29;45042;-65
2023/05/10 01:38:53;;;;;;;;;0.00;0.00;;;;;14.55;64.34;100726.84;2014717;29;45801;-64
2023/05/10 01:40:25;;;;;;;;;0.00;0.00;;;;;14.52;64.42;100735.84;2014597;29;46741;-64
2023/05/10 01:42:03;;;;;;;;;0.00;0.00;;;;;14.50;64.18;100736.84;1991907;29;47472;-65
2023/05/10 01:43:10;;;;;;;;;1.00;1.00;;;;;14.46;63.94;100727.19;1994712;29;46442;-64
2023/05/10 01:44:27;;;;;;;;;0.00;0.00;;;;;14.45;64.48;100723.63;1993170;29;46874;-64
2023/05/10 01:45:37;;;;;;;;;0.50;0.50;;;;;14.46;64.49;100727.19;1991620;29;46589;-64
2023/05/10 01:46:40;;;;;;;;;0.75;0.75;;;;;14.46;64.57;100732.50;1991570;29;46479;-64
2023/05/10 01:47:43;;;;;;;;;0.00;0.00;;;;;14.46;64.54;100732.50;1999826;29;46613;-63
2023/05/10 01:48:54;;;;;;;;;0.25;0.25;;;;;14.45;64.19;100728.97;1995885;29;46899;-64
2023/05/10 01:49:56;;;;;;;;;0.00;0.00;;;;;14.45;64.03;100739.66;1991929;29;46815;-64
2023/05/10 01:50:58;;;;;;;;;1.75;0.00;;;;;14.46;64.78;100738.72;1992637;29;46937;-65
2023/05/10 01:52:06;;;;;;;;;0.00;0.00;;;;;14.43;64.42;100739.69;1997456;29;46406;-64
2023/05/10 01:53:09;;;;;;;;;0.00;0.00;;;;;14.42;64.05;100734.41;2000131;29;46509;-65
2023/05/10 01:54:13;;;;;;;;;0.25;0.25;;;;;14.40;64.26;100738.94;1993476;29;46565;-64
2023/05/10 01:55:16;;;;;;;;;0.00;0.00;;;;;14.38;64.41;100741.66;1997565;29;45307;-64
2023/05/10 01:56:21;;;;;;;;;0.75;0.00;;;;;14.36;64.53;100732.84;1999327;29;46433;-64
2023/05/10 01:57:26;;;;;;;;;0.25;0.25;;;;;14.36;64.45;100740.84;1993674;29;46049;-63
2023/05/10 01:58:32;;;;;;;;;0.00;0.00;;;;;14.37;64.61;100736.38;1991009;29;46596;-65
2023/05/10 01:59:41;;;;;;;;;0.00;0.00;;;;;14.36;64.45;100740.00;2008489;29;45799;-64
2023/05/10 02:00:46;;;;;;;;;0.25;0.25;;;;;14.34;64.70;100737.34;2012583;29;46923;-64
2023/05/10 02:01:48;;;;;;;;;0.00;0.00;;;;;14.36;64.40;100748.00;2016379;29;46676;-63
2023/05/10 02:02:50;;;;;;;;;0.75;0.75;;;;;14.36;65.13;100740.84;2016073;29;46729;-65
2023/05/10 02:03:51;;;;;;;;;0.00;0.00;;;;;14.38;64.52;100743.47;2016519;29;45111;-65
2023/05/10 02:04:55;;;;;;;;;0.50;0.00;;;;;14.38;64.51;100732.78;2016015;29;46439;-64
2023/05/10 02:05:57;;;;;;;;;0.75;0.75;;;;;14.37;64.41;100739.06;2016437;29;46950;-64
2023/05/10 02:06:57;;;;;;;;;0.00;0.00;;;;;14.36;64.06;100731.97;2023342;29;47447;-65
2023/05/10 02:08:00;;;;;;;;;0.00;0.00;;;;;14.36;64.03;100742.66;2021724;29;46003;-65
2023/05/10 02:09:01;;;;;;;;;0.00;0.00;;;;;14.35;64.48;100740.88;2020928;28;46053;-64
2023/05/10 02:10:07;;;;;;;;;0.00;0.00;;;;;14.33;64.18;100730.28;2046234;28;46724;-64
2023/05/10 02:11:11;;;;;;;;;0.00;0.00;;;;;14.31;64.16;100740.13;2047576;28;46300;-64
2023/05/10 02:12:13;;;;;;;;;1.25;1.25;;;;;14.30;64.50;100741.06;2048126;28;46753;-64
2023/05/10 02:13:15;;;;;;;;;0.00;0.00;;;;;14.28;64.55;100745.59;2055718;28;45892;-65
2023/05/10 02:14:18;;;;;;;;;0.00;0.00;;;;;14.27;64.32;100748.31;2055731;28;46799;-64
2023/05/10 02:15:23;;;;;;;;;0.00;0.00;;;;;14.27;64.42;100743.84;2055794;28;46732;-64
2023/05/10 02:16:26;;;;;;;;;0.25;0.00;;;;;14.27;64.63;100749.19;2055768;28;48211;-65
2023/05/10 02:17:28;;;;;;;;;2.00;1.00;;;;;14.26;64.31;100749.25;2055879;28;46493;-64
2023/05/10 02:18:30;;;;;;;;;0.00;0.00;;;;;14.25;64.11;100751.06;2058813;28;46115;-64
2023/05/10 02:19:33;;;;;;;;;0.25;0.25;;;;;14.23;64.49;100755.59;2064242;28;47471;-64
2023/05/10 02:20:35;;;;;;;;;0.00;0.00;;;;;14.24;64.55;100759.13;2064702;28;45827;-64
2023/05/10 02:21:37;;;;;;;;;0.00;0.00;;;;;14.23;64.61;100758.25;2072267;28;46324;-64
2023/05/10 02:22:40;;;;;;;;;0.00;0.00;;;;;14.23;64.55;100760.00;2073110;28;46715;-65
2023/05/10 02:23:40;;;;;;;;;0.00;0.00;;;;;14.20;64.31;100752.13;2072997;28;46633;-65
2023/05/10 02:24:41;;;;;;;;;0.33;0.33;;;;;14.19;64.79;100748.59;2072944;28;46340;-64
2023/05/10 02:25:43;;;;;;;;;1.00;0.25;;;;;14.17;64.21;100749.56;2072497;28;46744;-65
2023/05/10 02:26:45;;;;;;;;;0.00;0.00;;;;;14.14;64.61;100748.75;2072927;28;46349;-64
2023/05/10 02:27:48;;;;;;;;;1.50;0.00;;;;;14.13;64.44;100752.38;2073197;28;45580;-64
2023/05/10 02:28:49;;;;;;;;;0.00;0.00;;;;;14.13;64.76;100751.50;2072379;28;47008;-65
2023/05/10 02:29:51;;;;;;;;;0.00;0.00;;;;;14.09;64.58;100742.69;2080292;28;46279;-64
2023/05/10 02:30:53;;;;;;;;;0.00;0.00;;;;;14.06;64.78;100745.50;2072573;28;46553;-64
2023/05/10 02:31:56;;;;;;;;;0.00;0.00;;;;;14.04;64.56;100742.00;2072647;28;46393;-65
2023/05/10 02:32:57;;;;;;;;;0.00;0.00;;;;;14.02;64.62;100748.34;2072832;28;47170;-64
2023/05/10 02:33:59;;;;;;;;;0.00;0.00;;;;;14.01;64.58;100743.91;2072799;28;47133;-65
2023/05/10 02:35:02;;;;;;;;;0.00;0.00;;;;;14.00;64.86;100744.84;2073084;28;46474;-64
2023/05/10 02:36:04;;;;;;;;;0.00;0.00;;;;;13.99;64.46;100748.44;2067222;28;45976;-64
2023/05/10 02:37:06;;;;;;;;;0.00;0.00;;;;;14.00;64.85;100750.19;2073006;28;45472;-63
2023/05/10 02:38:07;;;;;;;;;0.00;0.00;;;;;13.99;64.87;100749.31;2080540;28;46229;-63
2023/05/10 02:39:12;;;;;;;;;1.00;0.25;;;;;14.00;64.64;100751.06;2072411;28;45932;-64
2023/05/10 02:40:14;;;;;;;;;0.00;0.00;;;;;14.02;64.80;100759.00;2074875;28;46758;-65
2023/05/10 02:41:15;;;;;;;;;0.00;0.00;;;;;14.04;64.75;100750.00;2083249;28;46643;-64
2023/05/10 02:42:20;;;;;;;;;0.00;0.00;;;;;14.06;64.83;100749.94;2072780;28;46932;-64
2023/05/10 02:43:23;;;;;;;;;0.00;0.00;;;;;14.07;64.70;100757.91;2072780;28;45909;-64
2023/05/10 02:44:27;;;;;;;;;0.00;0.00;;;;;14.08;64.85;100754.31;2064476;28;46313;-64
2023/05/10 02:45:30;;;;;;;;;0.00;0.00;;;;;14.07;64.73;100755.22;2069902;28;45679;-63
2023/05/10 02:46:31;;;;;;;;;0.00;0.00;;;;;14.10;64.68;100756.91;2072134;28;48062;-64
2023/05/10 02:47:31;;;;;;;;;0.00;0.00;;;;;14.11;64.43;100753.34;2072863;28;46700;-65
2023/05/10 02:48:32;;;;;;;;;1.00;0.00;;;;;14.13;64.38;100747.03;2062870;28;46333;-64
2023/05/10 02:49:32;;;;;;;;;0.00;0.00;;;;;14.16;64.89;100754.03;2063627;28;46485;-65
2023/05/10 02:50:34;;;;;;;;;0.00;0.00;;;;;14.17;64.44;100747.78;2072581;28;47176;-65
2023/05/10 02:51:37;;;;;;;;;0.00;0.00;;;;;14.18;64.40;100736.16;2072356;28;46705;-64
2023/05/10 02:52:44;;;;;;;;;0.00;0.00;;;;;14.22;64.78;100750.28;2072828;28;46482;-65
2023/05/10 02:53:49;;;;;;;;;0.25;0.25;;;;;14.22;64.61;100752.94;2072532;28;46500;-65
2023/05/10 02:54:54;;;;;;;;;0.00;0.00;;;;;14.22;64.70;100755.59;2072568;28;46960;-65
2023/05/10 02:56:00;;;;;;;;;0.00;0.00;;;;;14.23;64.38;100752.00;2072875;28;45736;-63
2023/05/10 02:57:04;;;;;;;;;0.00;0.00;;;;;14.20;64.36;100742.31;2072712;28;46996;-63
2023/05/10 02:58:04;;;;;;;;;0.00;0.00;;;;;14.20;64.40;100741.44;2072532;28;46348;-65
2023/05/10 02:59:05;;;;;;;;;0.00;0.00;;;;;14.18;64.39;100743.31;2066113;28;46778;-64
2023/05/10 03:00:06;;;;;;;;;0.00;0.00;;;;;14.18;64.42;100748.66;2068421;28;46885;-62
2023/05/10 03:01:07;;;;;;;;;0.00;0.00;;;;;14.20;64.38;100741.44;2072470;28;46568;-63
2023/05/10 03:02:08;;;;;;;;;0.00;0.00;;;;;14.19;64.19;100732.56;2071921;28;46352;-64
2023/05/10 03:03:09;;;;;;;;;0.25;0.25;;;;;14.20;64.21;100733.44;2071827;28;46601;-64
2023/05/10 03:04:09;;;;;;;;;0.00;0.00;;;;;14.21;64.76;100733.38;2072023;28;46088;-64
2023/05/10 03:05:09;;;;;;;;;0.00;0.00;;;;;14.24;64.56;100738.63;2071975;28;46174;-65
2023/05/10 03:06:10;;;;;;;;;0.00;0.00;;;;;14.25;64.39;100732.38;2072736;28;46763;-64
2023/05/10 03:07:10;;;;;;;;;0.00;0.00;;;;;14.27;64.70;100737.66;2072696;28;46809;-64
2023/05/10 03:08:11;;;;;;;;;0.00;0.00;;;;;14.28;64.46;100734.91;2072172;28;46438;-64
2023/05/10 03:09:15;;;;;;;;;0.00;0.00;;;;;14.28;64.51;100726.03;2072771;28;46264;-65
2023/05/10 03:10:15;;;;;;;;;0.00;0.00;;;;;14.28;64.34;100726.03;2080396;28;45570;-65
2023/05/10 03:11:45;;;;;;;;;0.33;0.00;;;;;14.27;64.37;100730.50;2072039;28;45626;-64
2023/05/10 03:13:04;;;;;;;;;1.00;1.00;;;;;14.25;63.91;100723.50;2068419;28;47018;-64
2023/05/10 03:14:38;;;;;;;;;0.00;0.00;;;;;14.24;64.58;100727.97;2064487;28;45354;-64
2023/05/10 03:16:00;;;;;;;;;1.00;1.00;;;;;14.26;64.25;100733.25;2064332;28;46776;-64
2023/05/10 03:17:10;;;;;;;;;0.00;0.00;;;;;14.27;64.85;100726.97;2072013;28;46308;-62
2023/05/10 03:18:18;;;;;;;;;0.00;0.00;;;;;14.30;64.41;100727.72;2070656;28;46442;-64
2023/05/10 03:19:27;;;;;;;;;0.00;0.00;;;;;14.34;64.66;100725.78;2071311;28;46598;-63
2023/05/10 03:20:52;;;;;;;;;0.00;0.00;;;;;14.36;64.45;100727.50;2071998;28;46645;-65
2023/05/10 03:21:55;;;;;;;;;0.00;0.00;;;;;14.38;64.59;100722.09;2047106;28;45346;-64
2023/05/10 03:23:04;;;;;;;;;0.00;0.00;;;;;14.39;64.12;100734.53;2048129;28;46698;-65
2023/05/10 03:24:11;;;;;;;;;0.00;0.00;;;;;14.39;64.51;100724.72;2052270;28;47182;-63
2023/05/10 03:25:12;;;;;;;;;0.00;0.00;;;;;14.40;64.32;100729.13;2054745;28;46754;-64
2023/05/10 03:26:20;;;;;;;;;0.00;0.00;;;;;14.42;64.53;100731.72;2054990;28;48098;-64
2023/05/10 03:27:22;;;;;;;;;0.00;0.00;;;;;14.45;64.53;100736.13;2055065;28;46552;-64
2023/05/10 03:28:25;;;;;;;;;0.00;0.00;;;;;14.45;64.66;100730.78;2055360;28;46381;-64
2023/05/10 03:29:27;;;;;;;;;0.00;0.00;;;;;14.45;64.48;100734.31;2054935;28;46923;-64
2023/05/10 03:30:28;;;;;;;;;0.75;0.00;;;;;14.46;64.41;100732.50;2055163;28;46406;-64
2023/05/10 03:31:28;;;;;;;;;0.00;0.00;;;;;14.46;64.20;100732.50;2055057;28;46793;-64
2023/05/10 03:32:30;;;;;;;;;0.00;0.00;;;;;14.45;64.28;100728.09;2054831;28;46228;-63
2023/05/10 03:33:30;;;;;;;;;0.75;0.00;;;;;14.45;64.04;100725.44;2047171;28;47480;-65
2023/05/10 03:34:31;;;;;;;;;0.00;0.00;;;;;14.45;63.99;100734.31;2047308;28;46107;-65
2023/05/10 03:35:31;;;;;;;;;0.67;0.00;;;;;14.47;64.41;100735.13;2047310;28;46526;-63
2023/05/10 03:36:32;;;;;;;;;0.00;0.00;;;;;14.48;64.23;100739.53;2045090;28;46473;-65
2023/05/10 03:37:32;;;;;;;;;0.00;0.00;;;;;14.49;64.08;100735.09;2045089;28;46937;-64
2023/05/10 03:38:33;;;;;;;;;0.00;0.00;;;;;14.51;64.38;100741.25;2047054;28;46349;-63
2023/05/10 03:39:33;;;;;;;;;0.33;0.00;;;;;14.51;64.47;100731.44;2047027;28;46299;-65
2023/05/10 03:40:34;;;;;;;;;0.00;0.00;;;;;14.51;64.44;100733.22;2050186;28;46264;-64
2023/05/10 03:41:34;;;;;;;;;0.00;0.00;;;;;14.51;64.26;100726.09;2046792;28;46689;-64
2023/05/10 03:42:35;;;;;;;;;0.00;0.00;;;;;14.51;64.42;100731.44;2047068;28;46447;-64
2023/05/10 03:43:36;;;;;;;;;1.00;0.00;;;;;14.52;64.25;100730.50;2040144;28;45905;-65
2023/05/10 03:44:38;;;;;;;;;0.00;0.00;;;;;14.54;64.20;100730.44;2038837;28;46326;-64
2023/05/10 03:45:38;;;;;;;;;0.00;0.00;;;;;14.56;64.46;100733.91;2040839;28;46469;-63
2023/05/10 03:46:39;;;;;;;;;0.00;0.00;;;;;14.57;64.84;100738.31;2054846;28;46251;-65
2023/05/10 03:47:39;;;;;;;;;0.00;0.00;;;;;14.58;64.75;100737.41;2047375;28;46578;-64
2023/05/10 03:48:40;;;;;;;;;0.00;0.00;;;;;14.58;64.56;100740.94;2047736;28;45741;-63
2023/05/10 03:49:41;;;;;;;;;0.00;0.00;;;;;14.58;64.57;100737.41;2055209;28;45421;-63
2023/05/10 03:50:42;;;;;;;;;0.00;0.00;;;;;14.57;64.45;100728.50;2055155;28;46329;-64
2023/05/10 03:51:43;;;;;;;;;0.00;0.00;;;;;14.57;64.44;100732.97;2055222;28;45982;-64
2023/05/10 03:52:44;;;;;;;;;0.33;0.33;;;;;14.55;64.54;100729.50;2055050;28;45912;-64
2023/05/10 03:53:45;;;;;;;;;0.25;0.25;;;;;14.54;65.17;100733.97;2039128;28;47021;-64
2023/05/10 03:54:45;;;;;;;;;2.33;0.00;;;;;14.54;65.28;100727.78;2039287;28;46952;-64
2023/05/10 03:55:46;;;;;;;;;0.33;0.00;;;;;14.54;65.35;100731.31;2053989;28;46783;-61
2023/05/10 03:56:47;;;;;;;;;1.00;0.33;;;;;14.54;65.77;100736.66;2051234;28;46246;-62
2023/05/10 03:57:49;;;;;;;;;0.50;0.25;;;;;14.54;65.38;100733.09;2055603;28;46688;-62
2023/05/10 03:58:49;;;;;;;;;0.00;0.00;;;;;14.54;65.27;100730.44;2054763;28;46425;-60
2023/05/10 03:59:50;;;;;;;;;0.00;0.00;;;;;14.53;65.45;100728.69;2068554;28;46421;-61
2023/05/10 04:00:51;;;;;;;;;0.00;0.00;;;;;14.52;65.62;100727.84;2072029;28;46268;-61
2023/05/10 04:01:51;;;;;;;;;0.25;0.00;;;;;14.52;65.31;100733.16;2071901;28;47194;-62
2023/05/10 04:02:52;;;;;;;;;0.00;0.00;;;;;14.52;65.63;100719.81;2072247;28;46603;-60
2023/05/10 04:03:53;;;;;;;;;0.00;0.00;;;;;14.52;65.37;100726.97;2072287;28;46795;-61
2023/05/10 04:04:53;;;;;;;;;0.00;0.00;;;;;14.49;65.47;100727.94;2071710;28;46300;-62
2023/05/10 04:06:01;;;;;;;;;1.00;1.00;;;;;14.48;65.38;100728.84;2070387;28;46728;-60
2023/05/10 04:07:02;;;;;;;;;0.00;0.00;;;;;14.48;65.65;100725.31;2071072;28;46675;-61
2023/05/10 04:08:03;;;;;;;;;0.75;0.00;;;;;14.47;65.86;100729.78;2072113;28;46564;-64
2023/05/10 04:09:04;;;;;;;;;1.00;0.00;;;;;14.46;65.82;100721.84;2069757;28;46439;-61
2023/05/10 04:10:05;;;;;;;;;0.33;0.33;;;;;14.45;65.90;100723.63;2070428;28;46289;-61
2023/05/10 04:11:09;;;;;;;;;0.33;0.00;;;;;14.45;66.12;100720.09;2069172;28;46087;-63
2023/05/10 04:12:09;;;;;;;;;0.00;0.00;;;;;14.45;66.36;100720.97;2072209;28;46773;-62
2023/05/10 04:13:10;;;;;;;;;0.00;0.00;;;;;14.45;66.37;100728.97;2071863;28;46390;-61
2023/05/10 04:14:11;;;;;;;;;0.75;0.25;;;;;14.46;66.37;100719.16;2071465;28;46310;-62
2023/05/10 04:15:11;;;;;;;;;0.00;0.00;;;;;14.46;66.28;100716.50;2072178;28;46843;-62
2023/05/10 04:16:12;;;;;;;;;0.00;0.00;;;;;14.48;66.26;100714.63;2072827;28;46569;-61
2023/05/10 04:17:12;;;;;;;;;0.00;0.00;;;;;14.49;66.30;100713.72;2071132;28;46451;-61
2023/05/10 04:18:12;;;;;;;;;0.00;0.00;;;;;14.50;66.30;100723.47;2071465;28;46288;-61
2023/05/10 04:19:12;;;;;;;;;0.33;0.00;;;;;14.50;66.14;100720.81;2072269;28;46381;-61
2023/05/10 04:20:13;;;;;;;;;0.00;0.00;;;;;14.50;66.07;100719.00;2072443;28;46396;-60
2023/05/10 04:21:14;;;;;;;;;0.00;0.00;;;;;14.51;66.61;100726.09;2073010;28;45510;-62
2023/05/10 04:22:14;;;;;;;;;0.00;0.00;;;;;14.51;66.27;100720.75;2072947;28;46201;-61
2023/05/10 04:23:16;;;;;;;;;0.00;0.00;;;;;14.52;66.51;100721.63;2071715;28;46281;-62
2023/05/10 04:24:16;;;;;;;;;0.00;0.00;;;;;14.51;66.34;100720.75;2071943;28;46464;-61
2023/05/10 04:25:17;;;;;;;;;0.00;0.00;;;;;14.52;66.74;100729.63;2071938;28;46904;-59
2023/05/10 04:26:17;;;;;;;;;0.33;0.33;;;;;14.51;66.35;100725.22;2072237;28;46367;-61
2023/05/10 04:27:17;;;;;;;;;0.00;0.00;;;;;14.50;66.68;100727.03;2071087;28;46538;-61
2023/05/10 04:28:18;;;;;;;;;0.00;0.00;;;;;14.51;66.54;100722.56;2071818;28;46784;-60
2023/05/10 04:29:18;;;;;;;;;0.00;0.00;;;;;14.50;66.67;100724.34;2071946;28;46432;-63
2023/05/10 04:30:18;;;;;;;;;0.00;0.00;;;;;14.51;66.43;100717.22;2071771;28;46631;-61
2023/05/10 04:31:19;;;;;;;;;0.00;0.00;;;;;14.50;66.84;100719.00;2072014;28;46517;-62
2023/05/10 04:32:20;;;;;;;;;0.00;0.00;;;;;14.49;66.72;100717.28;2071847;28;46513;-60
2023/05/10 04:33:20;;;;;;;;;1.33;0.33;;;;;14.49;67.28;100713.72;2071969;28;46535;-59
2023/05/10 04:34:21;;;;;;;;;0.00;0.00;;;;;14.50;66.95;100718.16;2072265;28;46674;-62
2023/05/10 04:35:21;;;;;;;;;0.00;0.00;;;;;14.49;67.37;100719.94;2072193;28;46888;-62
2023/05/10 04:36:21;;;;;;;;;0.33;0.33;;;;;14.48;66.66;100710.16;2071660;28;46999;-61
2023/05/10 04:37:22;;;;;;;;;0.33;0.33;;;;;14.48;66.84;100715.50;2073469;28;46410;-62
2023/05/10 04:38:23;;;;;;;;;0.00;0.00;;;;;14.48;67.35;100715.50;2079469;28;47491;-62
2023/05/10 04:39:23;;;;;;;;;0.00;0.00;;;;;14.49;67.52;100719.06;2071362;28;46154;-62
2023/05/10 04:40:24;;;;;;;;;0.00;0.00;;;;;14.49;67.29;100716.41;2071262;28;46370;-59
2023/05/10 04:41:25;;;;;;;;;0.33;0.33;;;;;14.48;67.30;100718.19;2072076;28;45474;-61
2023/05/10 04:42:25;;;;;;;;;0.00;0.00;;;;;14.49;66.98;100724.41;2071825;28;47103;-59
2023/05/10 04:43:26;;;;;;;;;0.00;0.00;;;;;14.49;67.32;100721.75;2080436;28;46429;-62
2023/05/10 04:44:26;;;;;;;;;0.33;0.33;;;;;14.49;67.31;100716.41;2079616;28;46642;-59
2023/05/10 04:45:26;;;;;;;;;0.00;0.00;;;;;14.50;67.04;100723.47;2067510;28;46266;-61
2023/05/10 04:46:27;;;;;;;;;0.00;0.00;;;;;14.51;67.51;100720.75;2071829;28;46075;-59
2023/05/10 04:47:27;;;;;;;;;0.00;0.00;;;;;14.52;66.82;100721.63;2071610;28;46232;-62
2023/05/10 04:48:28;;;;;;;;;0.00;0.00;;;;;14.51;67.11;100712.75;2071476;28;46519;-61
2023/05/10 04:49:29;;;;;;;;;0.00;0.00;;;;;14.53;67.39;100724.22;2071558;28;46430;-62
2023/05/10 04:50:29;;;;;;;;;0.00;0.00;;;;;14.52;67.23;100721.63;2071009;28;46608;-62
2023/05/10 04:51:31;;;;;;;;;0.33;0.33;;;;;14.52;67.32;100724.28;2072104;28;46988;-66
2023/05/10 04:52:31;;;;;;;;;0.00;0.00;;;;;14.51;67.70;100718.09;2072146;28;47004;-62
2023/05/10 04:53:32;;;;;;;;;0.33;0.00;;;;;14.53;67.51;100718.88;2071635;28;46810;-61